Sherwood Forest, Maryland
Current Conditions -  °F | °C
As of 7:54 AM on Friday 19 Dec 2014 (Local Time) from KNAK Reporting Station
Overcast Overcast  
Wind Chill: 31°   Ceiling: 3600
Heat Index: 36°   Visibility: 10mi
Dew Point: 24°   Wind: 6mph
Humidity: 62%   Direction: 300°WNW
Pressure: 30.14"   Gusts: NA
Location:  39.0256°N, 76.5415°W
Report Text: KNAK 191254Z AUTO 30005KT 10SM OVC036 02/M04 A3014 RMK AO2 SLP208 T00221044 $
Loading
Personal Weather Stations






























Interactive Weather Map New forecast layout! Learn more

10-Day Weather Forecast

Advertisements
Track Severe Weather on mobile